createdAt,value
2022-12-31T00:00:15.155Z,100455.84
2022-12-31T00:02:43.073Z,100454.03
2022-12-31T00:05:10.747Z,100460.84
2022-12-31T00:10:04.916Z,100454.13
2022-12-31T00:12:32.445Z,100454.84
2022-12-31T00:14:59.807Z,100458.22
2022-12-31T00:17:27.507Z,100458.81
2022-12-31T00:19:54.860Z,100461.44
2022-12-31T00:22:22.182Z,100473.88
2022-12-31T00:24:49.835Z,100484.47
2022-12-31T00:27:17.234Z,100484.28
2022-12-31T00:29:44.585Z,100483.03
2022-12-31T00:32:12.309Z,100483.00
2022-12-31T00:34:39.663Z,100488.28
2022-12-31T00:37:07.014Z,100495.00
2022-12-31T00:39:34.832Z,100491.25
2022-12-31T00:42:02.628Z,100484.44
2022-12-31T00:44:29.996Z,100486.81
2022-12-31T00:46:57.630Z,100488.66
2022-12-31T00:49:25.122Z,100484.53
2022-12-31T00:51:52.462Z,100483.12
2022-12-31T00:54:20.141Z,100493.06
2022-12-31T00:56:47.497Z,100503.16
2022-12-31T00:59:14.852Z,100499.13
2022-12-31T01:01:42.755Z,100504.84
2022-12-31T01:04:12.704Z,100499.00
2022-12-31T01:06:40.327Z,100508.53
2022-12-31T01:09:08.249Z,100510.53
2022-12-31T01:11:35.656Z,100504.69
2022-12-31T01:14:05.226Z,100501.47
2022-12-31T01:16:47.606Z,100495.44
2022-12-31T01:19:26.084Z,100494.06
2022-12-31T01:21:53.794Z,100499.56
2022-12-31T01:24:21.237Z,100514.69
2022-12-31T01:26:51.214Z,100504.66
2022-12-31T01:29:18.894Z,100507.50
2022-12-31T01:31:46.253Z,100505.78
2022-12-31T01:34:13.708Z,100508.19
2022-12-31T01:36:41.297Z,100513.22
2022-12-31T01:39:08.872Z,100517.63
2022-12-31T01:41:41.092Z,100518.37
2022-12-31T01:44:11.652Z,100519.44
2022-12-31T01:46:45.657Z,100514.25
2022-12-31T01:49:35.213Z,100514.56
2022-12-31T01:52:30.234Z,100509.56
2022-12-31T01:55:25.669Z,100505.16
2022-12-31T01:57:55.123Z,100507.00
2022-12-31T02:00:22.793Z,100507.87
2022-12-31T02:02:50.522Z,100505.16
2022-12-31T02:05:32.016Z,100507.50
2022-12-31T02:07:59.719Z,100511.75
2022-12-31T02:10:27.062Z,100517.28
2022-12-31T02:12:54.389Z,100513.31
2022-12-31T02:15:23.254Z,100519.94
2022-12-31T02:18:00.699Z,100522.78
2022-12-31T02:20:40.527Z,100522.78
2022-12-31T02:23:19.132Z,100530.44
2022-12-31T02:25:55.874Z,100531.59
2022-12-31T02:29:04.439Z,100521.72
2022-12-31T02:31:35.010Z,100515.56
2022-12-31T02:34:08.046Z,100518.84
2022-12-31T02:36:37.443Z,100532.19
2022-12-31T02:39:04.896Z,100535.47
2022-12-31T02:41:50.449Z,100531.78
2022-12-31T02:44:29.768Z,100540.88
2022-12-31T02:47:09.214Z,100538.78
2022-12-31T02:49:42.114Z,100529.28
2022-12-31T02:52:18.140Z,100523.59
2022-12-31T02:54:59.131Z,100519.59
2022-12-31T02:57:35.394Z,100515.59
2022-12-31T03:00:26.820Z,100518.72
2022-12-31T03:02:54.393Z,100519.78
2022-12-31T03:05:24.270Z,100515.34
2022-12-31T03:07:51.594Z,100515.59
2022-12-31T03:10:19.139Z,100501.53
2022-12-31T03:12:49.610Z,100518.37
2022-12-31T03:15:25.805Z,100518.25
2022-12-31T03:18:06.696Z,100504.13
2022-12-31T03:21:04.020Z,100498.88
2022-12-31T03:23:40.198Z,100509.16
2022-12-31T03:26:12.490Z,100511.69
2022-12-31T03:28:41.474Z,100498.50
2022-12-31T03:31:09.058Z,100505.88
2022-12-31T03:33:38.270Z,100510.06
2022-12-31T03:36:10.977Z,100507.69
2022-12-31T03:38:38.397Z,100502.13
2022-12-31T03:41:06.024Z,100500.28
2022-12-31T03:43:33.513Z,100504.56
2022-12-31T03:46:01.702Z,100515.22
2022-12-31T03:48:29.958Z,100504.47
2022-12-31T03:50:57.501Z,100506.00
2022-12-31T03:53:24.834Z,100503.09
2022-12-31T03:55:53.140Z,100505.66
2022-12-31T03:58:21.124Z,100500.84
2022-12-31T04:00:48.569Z,100502.13
2022-12-31T04:03:16.348Z,100493.69
2022-12-31T04:05:43.831Z,100492.44
2022-12-31T04:08:11.204Z,100498.84
2022-12-31T04:10:38.826Z,100502.25
2022-12-31T04:13:06.168Z,100496.47
2022-12-31T04:15:33.521Z,100496.22
2022-12-31T04:18:01.160Z,100495.13
2022-12-31T04:20:28.552Z,100501.53
2022-12-31T04:22:55.876Z,100514.69
2022-12-31T04:25:23.465Z,100515.75
2022-12-31T04:27:51.578Z,100534.25
2022-12-31T04:30:18.948Z,100518.41
2022-12-31T04:32:46.552Z,100520.94
2022-12-31T04:35:13.919Z,100528.06
2022-12-31T04:37:41.272Z,100532.66
2022-12-31T04:40:09.208Z,100527.41
2022-12-31T04:42:36.753Z,100528.94
2022-12-31T04:45:04.549Z,100546.59
2022-12-31T04:47:32.303Z,100544.53
2022-12-31T04:49:59.765Z,100546.13
2022-12-31T04:52:27.997Z,100541.50
2022-12-31T04:54:55.631Z,100540.78
2022-12-31T04:57:23.048Z,100551.47
2022-12-31T04:59:50.391Z,100547.59
2022-12-31T05:02:18.215Z,100566.37
2022-12-31T05:04:45.696Z,100555.75
2022-12-31T05:07:13.033Z,100553.88
2022-12-31T05:09:40.701Z,100569.31
2022-12-31T05:12:08.127Z,100580.38
2022-12-31T05:14:35.552Z,100586.34
2022-12-31T05:17:03.233Z,100587.66
2022-12-31T05:19:30.639Z,100584.56
2022-12-31T05:22:27.445Z,100581.00
2022-12-31T05:24:55.199Z,100575.34
2022-12-31T05:27:22.606Z,100579.13
2022-12-31T05:29:50.053Z,100574.44
2022-12-31T05:32:17.746Z,100593.16
2022-12-31T05:34:45.122Z,100592.56
2022-12-31T05:37:12.473Z,100604.16
2022-12-31T05:39:40.199Z,100601.56
2022-12-31T05:42:07.528Z,100600.03
2022-12-31T05:44:34.939Z,100610.56
2022-12-31T05:47:02.589Z,100611.09
2022-12-31T05:49:30.069Z,100618.69
2022-12-31T05:51:57.407Z,100614.78
2022-12-31T05:54:25.050Z,100623.81
2022-12-31T05:56:52.418Z,100624.28
2022-12-31T05:59:19.807Z,100621.50
2022-12-31T06:01:47.758Z,100626.03
2022-12-31T06:04:15.472Z,100619.03
2022-12-31T06:06:42.804Z,100624.38
2022-12-31T06:09:11.582Z,100623.53
2022-12-31T06:11:39.188Z,100626.78
2022-12-31T06:14:06.512Z,100635.84
2022-12-31T06:16:33.876Z,100641.31
2022-12-31T06:19:02.384Z,100641.63
2022-12-31T06:21:29.923Z,100636.91
2022-12-31T06:23:58.730Z,100624.88
2022-12-31T06:26:26.914Z,100626.16
2022-12-31T06:28:54.256Z,100614.47
2022-12-31T06:31:21.761Z,100623.22
2022-12-31T06:33:49.418Z,100623.75
2022-12-31T06:36:16.913Z,100624.59
2022-12-31T06:38:44.411Z,100637.41
2022-12-31T06:41:13.305Z,100634.53
2022-12-31T06:43:40.658Z,100628.00
2022-12-31T06:46:09.791Z,100637.72
2022-12-31T06:48:37.626Z,100638.56
2022-12-31T06:51:15.013Z,100635.53
2022-12-31T06:53:45.704Z,100633.31
2022-12-31T06:56:17.969Z,100631.72
2022-12-31T06:58:46.268Z,100633.13
2022-12-31T07:01:51.404Z,100637.16
2022-12-31T07:04:43.660Z,100638.19
2022-12-31T07:07:24.973Z,100650.47
2022-12-31T07:09:57.693Z,100657.59
2022-12-31T07:12:48.567Z,100654.22
2022-12-31T07:15:41.544Z,100646.34
2022-12-31T07:18:37.542Z,100645.59
2022-12-31T07:21:08.619Z,100662.25
2022-12-31T07:23:36.075Z,100652.19
2022-12-31T07:26:12.319Z,100653.66
2022-12-31T07:28:51.334Z,100660.00
2022-12-31T07:31:46.131Z,100664.88
2022-12-31T07:34:30.106Z,100663.63
2022-12-31T07:37:07.228Z,100654.31
2022-12-31T07:39:40.305Z,100662.44
2022-12-31T07:42:16.891Z,100666.06
2022-12-31T07:45:19.297Z,100670.38
2022-12-31T07:47:46.945Z,100664.37
2022-12-31T07:50:15.791Z,100665.22
2022-12-31T07:52:43.843Z,100669.44
2022-12-31T07:55:11.384Z,100674.34
2022-12-31T07:57:42.829Z,100688.31
2022-12-31T08:00:14.058Z,100681.88
2022-12-31T08:03:02.998Z,100675.25
2022-12-31T08:05:37.034Z,100689.94
2022-12-31T08:08:07.153Z,100693.16
2022-12-31T08:11:06.261Z,100698.88
2022-12-31T08:13:33.752Z,100708.50
2022-12-31T08:16:01.989Z,100715.47
2022-12-31T08:18:29.525Z,100699.88
2022-12-31T08:21:09.472Z,100698.13
2022-12-31T08:23:43.916Z,100712.13
2022-12-31T08:26:45.821Z,100717.25
2022-12-31T08:29:30.893Z,100735.91
2022-12-31T08:32:17.474Z,100735.87
2022-12-31T08:35:11.375Z,100751.78
2022-12-31T08:37:50.899Z,100757.56
2022-12-31T08:40:26.082Z,100767.75
2022-12-31T08:43:12.583Z,100763.03
2022-12-31T08:45:47.856Z,100778.25
2022-12-31T08:48:38.869Z,100775.00
2022-12-31T08:51:07.159Z,100774.16
2022-12-31T08:53:35.091Z,100752.66
2022-12-31T08:56:07.778Z,100768.72
2022-12-31T08:58:50.538Z,100766.37
2022-12-31T09:01:20.668Z,100793.41
2022-12-31T09:04:01.382Z,100799.37
2022-12-31T09:06:33.941Z,100794.00
2022-12-31T09:09:38.283Z,100785.28
2022-12-31T09:12:20.896Z,100765.00
2022-12-31T09:14:54.922Z,100761.31
2022-12-31T09:17:44.945Z,100766.16
2022-12-31T09:20:18.991Z,100763.38
2022-12-31T09:22:46.407Z,100742.25
2022-12-31T09:25:15.751Z,100751.63
2022-12-31T09:27:58.376Z,100747.16
2022-12-31T09:30:26.439Z,100736.75
2022-12-31T09:33:01.423Z,100736.56
2022-12-31T09:35:51.432Z,100730.19
2022-12-31T09:38:46.176Z,100723.06
2022-12-31T09:41:15.620Z,100729.47
2022-12-31T09:44:21.285Z,100723.75
2022-12-31T09:47:07.587Z,100719.88
2022-12-31T09:49:59.302Z,100710.59
2022-12-31T09:52:38.845Z,100719.69
2022-12-31T09:55:12.125Z,100709.50
2022-12-31T09:57:41.537Z,100701.00
2022-12-31T10:00:16.462Z,100690.56
2022-12-31T10:02:55.638Z,100689.22
2022-12-31T10:05:31.139Z,100689.19
2022-12-31T10:08:07.955Z,100693.09
2022-12-31T10:10:55.384Z,100687.31
2022-12-31T10:13:40.815Z,100701.91
2022-12-31T10:16:25.402Z,100701.13
2022-12-31T10:19:24.108Z,100704.94
2022-12-31T10:22:19.080Z,100695.22
2022-12-31T10:24:51.473Z,100673.88
2022-12-31T10:27:39.761Z,100687.28
2022-12-31T10:30:18.767Z,100700.12
2022-12-31T10:33:08.103Z,100700.78
2022-12-31T10:35:53.944Z,100690.66
2022-12-31T10:38:49.587Z,100686.56
2022-12-31T10:41:35.427Z,100675.62
2022-12-31T10:44:17.678Z,100661.72
2022-12-31T10:46:58.523Z,100687.44
2022-12-31T10:50:03.585Z,100691.37
2022-12-31T10:52:53.138Z,100686.88
2022-12-31T10:55:24.909Z,100708.13
2022-12-31T10:58:04.374Z,100698.63
2022-12-31T11:00:41.396Z,100694.41
2022-12-31T11:03:43.784Z,100701.34
2022-12-31T11:06:23.232Z,100701.84
2022-12-31T11:09:18.815Z,100670.91
2022-12-31T11:12:10.737Z,100659.06
2022-12-31T11:14:53.137Z,100685.94
2022-12-31T11:17:52.982Z,100689.16
2022-12-31T11:20:28.520Z,100676.97
2022-12-31T11:23:23.815Z,100684.31
2022-12-31T11:26:02.849Z,100667.44
2022-12-31T11:28:40.791Z,100660.69
2022-12-31T11:31:32.793Z,100656.69
2022-12-31T11:34:38.552Z,100661.72
2022-12-31T11:37:28.371Z,100665.22
2022-12-31T11:40:17.748Z,100663.97
2022-12-31T11:43:19.847Z,100654.44
2022-12-31T11:45:59.061Z,100645.16
2022-12-31T11:48:37.407Z,100635.91
2022-12-31T11:51:13.697Z,100638.31
2022-12-31T11:54:03.716Z,100635.66
2022-12-31T11:56:35.696Z,100640.94
2022-12-31T11:59:12.097Z,100655.75
2022-12-31T12:01:50.842Z,100669.47
2022-12-31T12:04:18.512Z,100665.78
2022-12-31T12:06:46.067Z,100675.50
2022-12-31T12:09:16.876Z,100678.22
2022-12-31T12:11:44.573Z,100680.25
2022-12-31T12:14:35.397Z,100671.25
2022-12-31T12:17:05.514Z,100670.28
2022-12-31T12:19:34.311Z,100673.12
2022-12-31T12:22:34.269Z,100663.81
2022-12-31T12:25:15.946Z,100659.75
2022-12-31T12:27:43.639Z,100668.81
2022-12-31T12:30:26.835Z,100658.59
2022-12-31T12:32:58.724Z,100667.34
2022-12-31T12:35:31.685Z,100667.44
2022-12-31T12:38:20.432Z,100669.97
2022-12-31T12:40:58.846Z,100651.63
2022-12-31T12:43:31.131Z,100660.81
2022-12-31T12:46:04.142Z,100667.81
2022-12-31T12:48:39.495Z,100657.34
2022-12-31T12:51:19.235Z,100643.25
2022-12-31T12:54:04.271Z,100651.75
2022-12-31T12:56:36.400Z,100653.16
2022-12-31T12:59:19.454Z,100653.81
2022-12-31T13:02:22.188Z,100649.72
2022-12-31T13:04:56.582Z,100653.59
2022-12-31T13:07:33.400Z,100647.84
2022-12-31T13:10:00.618Z,100646.22
2022-12-31T13:13:13.856Z,100657.09
2022-12-31T13:15:31.855Z,100662.53
2022-12-31T13:18:06.129Z,100651.53
2022-12-31T13:20:40.112Z,100657.63
2022-12-31T13:23:25.233Z,100660.06
2022-12-31T13:26:10.670Z,100666.38
2022-12-31T13:28:42.340Z,100669.69
2022-12-31T13:31:12.664Z,100663.31
2022-12-31T13:33:45.387Z,100668.03
2022-12-31T13:36:20.608Z,100674.13
2022-12-31T13:38:58.897Z,100671.53
2022-12-31T13:41:32.878Z,100662.50
2022-12-31T13:44:20.614Z,100670.38
2022-12-31T13:46:56.145Z,100672.50
2022-12-31T13:49:27.227Z,100675.50
2022-12-31T13:52:16.058Z,100685.03
2022-12-31T13:54:47.701Z,100684.37
2022-12-31T13:57:23.856Z,100678.75
2022-12-31T13:59:54.970Z,100677.41
2022-12-31T14:02:31.474Z,100690.53
2022-12-31T14:05:31.516Z,100688.59
2022-12-31T14:08:00.527Z,100693.66
2022-12-31T14:10:37.227Z,100677.03
2022-12-31T14:13:34.781Z,100676.50
2022-12-31T14:16:08.387Z,100672.34
2022-12-31T14:18:47.164Z,100682.88
2022-12-31T14:21:23.143Z,100684.37
2022-12-31T14:23:55.937Z,100687.09
2022-12-31T14:26:27.969Z,100683.03
2022-12-31T14:29:10.299Z,100680.94
2022-12-31T14:31:53.967Z,100692.22
2022-12-31T14:34:49.803Z,100694.75
2022-12-31T14:37:27.893Z,100697.13
2022-12-31T14:40:16.942Z,100707.94
2022-12-31T14:43:10.325Z,100707.72
2022-12-31T14:46:09.815Z,100696.59
2022-12-31T14:48:46.465Z,100684.41
2022-12-31T14:51:13.861Z,100693.56
2022-12-31T14:53:51.359Z,100693.00
2022-12-31T14:56:30.669Z,100701.63
2022-12-31T14:59:01.676Z,100717.34
2022-12-31T15:01:29.335Z,100704.69
2022-12-31T15:03:58.183Z,100698.19
2022-12-31T15:06:41.062Z,100701.84
2022-12-31T15:09:11.316Z,100710.66
2022-12-31T15:12:01.023Z,100720.25
2022-12-31T15:14:54.367Z,100720.62
2022-12-31T15:17:34.615Z,100729.66
2022-12-31T15:20:27.574Z,100719.41
2022-12-31T15:22:55.267Z,100717.88
2022-12-31T15:25:41.058Z,100699.03
2022-12-31T15:28:26.961Z,100708.09
2022-12-31T15:30:54.853Z,100695.75
2022-12-31T15:33:39.219Z,100694.94
2022-12-31T15:36:17.897Z,100702.69
2022-12-31T15:38:45.646Z,100712.03
2022-12-31T15:41:19.941Z,100720.19
2022-12-31T15:43:57.155Z,100715.22
2022-12-31T15:46:33.776Z,100724.19
2022-12-31T15:49:11.739Z,100720.41
2022-12-31T15:51:56.086Z,100711.03
2022-12-31T15:54:35.686Z,100719.69
2022-12-31T15:57:07.290Z,100715.50
2022-12-31T15:59:38.343Z,100723.16
2022-12-31T16:02:20.164Z,100722.81
2022-12-31T16:04:47.927Z,100718.28
2022-12-31T16:07:15.392Z,100722.94
2022-12-31T16:09:42.823Z,100727.03
2022-12-31T16:12:12.589Z,100726.91
2022-12-31T16:14:42.588Z,100736.66
2022-12-31T16:17:28.438Z,100737.81
2022-12-31T16:19:56.025Z,100729.91
2022-12-31T16:22:37.658Z,100730.06
2022-12-31T16:25:34.253Z,100727.88
2022-12-31T16:27:53.511Z,100727.97
2022-12-31T16:30:35.670Z,100720.47
2022-12-31T16:33:06.163Z,100723.38
2022-12-31T16:35:34.979Z,100717.91
2022-12-31T16:38:03.638Z,100725.91
2022-12-31T16:40:31.149Z,100724.56
2022-12-31T16:42:58.515Z,100727.09
2022-12-31T16:45:36.382Z,100740.47
2022-12-31T16:48:18.256Z,100739.09
2022-12-31T16:50:53.355Z,100734.06
2022-12-31T16:53:23.884Z,100735.06
2022-12-31T16:56:01.481Z,100723.59
2022-12-31T16:58:30.794Z,100720.25
2022-12-31T17:01:23.741Z,100714.34
2022-12-31T17:03:52.901Z,100707.09
2022-12-31T17:06:20.958Z,100721.78
2022-12-31T17:09:00.834Z,100726.00
2022-12-31T17:11:35.006Z,100732.06
2022-12-31T17:14:08.315Z,100733.81
2022-12-31T17:16:37.771Z,100730.59
2022-12-31T17:19:05.129Z,100728.56
2022-12-31T17:21:32.560Z,100730.56
2022-12-31T17:24:06.617Z,100726.75
2022-12-31T17:26:35.047Z,100737.84
2022-12-31T17:29:03.839Z,100733.75
2022-12-31T17:31:38.182Z,100729.13
2022-12-31T17:34:13.151Z,100736.97
2022-12-31T17:37:14.464Z,100736.06
2022-12-31T17:39:53.115Z,100744.59
2022-12-31T17:42:38.645Z,100745.59
2022-12-31T17:45:08.366Z,100756.31
2022-12-31T17:47:40.194Z,100750.06
2022-12-31T17:50:19.214Z,100756.47
2022-12-31T17:52:46.749Z,100763.03
2022-12-31T17:55:14.552Z,100754.53
2022-12-31T17:57:49.650Z,100745.69
2022-12-31T18:00:22.370Z,100754.06
2022-12-31T18:02:50.272Z,100746.22
2022-12-31T18:05:22.107Z,100752.56
2022-12-31T18:07:50.209Z,100747.97
2022-12-31T18:10:19.261Z,100747.12
2022-12-31T18:12:47.123Z,100755.63
2022-12-31T18:15:16.115Z,100750.06
2022-12-31T18:17:43.543Z,100746.59
2022-12-31T18:20:11.063Z,100750.38
2022-12-31T18:22:39.195Z,100747.84
2022-12-31T18:25:07.481Z,100752.56
2022-12-31T18:27:34.970Z,100753.44
2022-12-31T18:30:05.648Z,100755.28
2022-12-31T18:32:35.415Z,100751.91
2022-12-31T18:35:03.279Z,100753.47
2022-12-31T18:37:30.651Z,100748.72
2022-12-31T18:39:58.005Z,100749.00
2022-12-31T18:42:26.231Z,100755.44
2022-12-31T18:44:53.587Z,100757.94
2022-12-31T18:47:23.238Z,100762.69
2022-12-31T18:49:50.985Z,100753.78
2022-12-31T18:52:19.827Z,100766.16
2022-12-31T18:54:47.240Z,100770.25
2022-12-31T18:57:15.381Z,100781.72
2022-12-31T18:59:42.750Z,100785.31
2022-12-31T19:02:18.627Z,100785.19
2022-12-31T19:04:46.976Z,100790.94
2022-12-31T19:07:14.402Z,100787.88
2022-12-31T19:09:46.283Z,100782.56
2022-12-31T19:12:14.774Z,100778.06
2022-12-31T19:14:42.172Z,100777.25
2022-12-31T19:19:36.040Z,100787.28
2022-12-31T19:22:03.434Z,100794.44
2022-12-31T19:24:30.889Z,100795.97
2022-12-31T19:26:58.628Z,100788.00
2022-12-31T19:29:27.074Z,100794.78
2022-12-31T19:31:54.624Z,100782.41
2022-12-31T19:34:22.332Z,100786.47
2022-12-31T19:36:49.696Z,100797.88
2022-12-31T19:39:18.436Z,100796.09
2022-12-31T19:41:47.521Z,100792.16
2022-12-31T19:44:17.269Z,100798.03
2022-12-31T19:46:44.823Z,100794.66
2022-12-31T19:49:13.237Z,100792.00
2022-12-31T19:51:40.888Z,100789.66
2022-12-31T19:54:08.388Z,100793.28
2022-12-31T19:56:36.041Z,100777.53
2022-12-31T19:59:06.970Z,100783.78
2022-12-31T20:01:34.521Z,100776.63
2022-12-31T20:04:02.257Z,100778.06
2022-12-31T20:06:29.795Z,100775.66
2022-12-31T20:08:57.196Z,100777.34
2022-12-31T20:11:24.897Z,100782.22
2022-12-31T20:13:53.581Z,100783.91
2022-12-31T20:16:24.466Z,100776.94
2022-12-31T20:18:52.321Z,100766.06
2022-12-31T20:21:24.309Z,100766.31
2022-12-31T20:23:52.587Z,100763.56
2022-12-31T20:26:20.210Z,100760.75
2022-12-31T20:28:47.588Z,100760.50
2022-12-31T20:31:16.938Z,100758.81
2022-12-31T20:33:44.731Z,100754.91
2022-12-31T20:36:13.431Z,100756.16
2022-12-31T20:38:41.154Z,100762.44
2022-12-31T20:41:13.220Z,100760.62
2022-12-31T20:43:40.876Z,100761.59
2022-12-31T20:46:14.959Z,100756.56
2022-12-31T20:48:45.761Z,100759.63
2022-12-31T20:51:14.075Z,100756.97
2022-12-31T20:53:46.366Z,100749.31
2022-12-31T20:56:14.023Z,100762.28
2022-12-31T20:58:41.573Z,100775.13
2022-12-31T21:01:09.447Z,100772.87
2022-12-31T21:04:04.145Z,100770.22
2022-12-31T21:06:25.514Z,100766.25
2022-12-31T21:08:54.827Z,100764.62
2022-12-31T21:11:40.795Z,100758.75
2022-12-31T21:14:08.404Z,100758.31
2022-12-31T21:16:35.847Z,100763.59
2022-12-31T21:19:03.376Z,100772.06
2022-12-31T21:21:31.087Z,100773.81
2022-12-31T21:23:58.499Z,100769.59
2022-12-31T21:26:25.859Z,100779.31
2022-12-31T21:28:53.735Z,100785.22
2022-12-31T21:31:21.135Z,100784.91
2022-12-31T21:33:48.679Z,100788.16
2022-12-31T21:36:16.320Z,100788.44
2022-12-31T21:38:44.160Z,100789.72
2022-12-31T21:41:33.638Z,100791.59
2022-12-31T21:44:02.224Z,100792.56
2022-12-31T21:46:29.812Z,100795.31
2022-12-31T21:48:57.878Z,100802.41
2022-12-31T21:51:25.650Z,100803.00
2022-12-31T21:53:53.032Z,100797.13
2022-12-31T21:56:21.328Z,100802.84
2022-12-31T21:59:14.604Z,100799.47
2022-12-31T22:02:02.393Z,100806.63
2022-12-31T22:07:17.568Z,100806.63
2022-12-31T22:09:45.294Z,100814.09
2022-12-31T22:12:12.630Z,100808.31
2022-12-31T22:14:40.026Z,100804.69
2022-12-31T22:17:27.752Z,100807.28
2022-12-31T22:22:42.730Z,100808.69
2022-12-31T22:25:10.098Z,100806.78
2022-12-31T22:27:37.445Z,100808.44
2022-12-31T22:30:05.722Z,100801.34
2022-12-31T22:32:33.146Z,100805.31
2022-12-31T22:35:00.471Z,100803.09
2022-12-31T22:37:55.796Z,100808.56
2022-12-31T22:40:15.814Z,100812.31
2022-12-31T22:42:43.473Z,100804.13
2022-12-31T22:45:11.170Z,100806.41
2022-12-31T22:47:38.495Z,100803.09
2022-12-31T22:50:06.774Z,100798.06
2022-12-31T22:52:34.233Z,100798.34
2022-12-31T22:55:01.600Z,100797.91
2022-12-31T22:57:29.240Z,100796.19
2022-12-31T22:59:56.736Z,100798.97
2022-12-31T23:02:24.120Z,100796.16
2022-12-31T23:04:51.767Z,100802.59
2022-12-31T23:07:19.113Z,100796.31
2022-12-31T23:10:05.376Z,100785.06
2022-12-31T23:12:32.845Z,100789.50
2022-12-31T23:15:19.310Z,100782.78
2022-12-31T23:18:05.875Z,100783.44
2022-12-31T23:20:51.824Z,100786.16
2022-12-31T23:23:19.550Z,100784.00
2022-12-31T23:25:48.598Z,100782.41
2022-12-31T23:28:18.101Z,100796.84
2022-12-31T23:30:45.876Z,100796.34
2022-12-31T23:33:15.485Z,100794.84
2022-12-31T23:35:43.007Z,100794.19
2022-12-31T23:38:10.652Z,100784.72
2022-12-31T23:40:38.032Z,100801.72
2022-12-31T23:43:06.587Z,100803.16
2022-12-31T23:45:34.612Z,100807.09
2022-12-31T23:48:02.266Z,100806.97
2022-12-31T23:50:29.620Z,100806.00
2022-12-31T23:52:57.254Z,100810.53
2022-12-31T23:55:24.670Z,100805.66
2022-12-31T23:57:52.014Z,100802.91
